createdAt,value
2022-12-11T00:01:19.076Z,101409.81
2022-12-11T00:03:46.433Z,101403.59
2022-12-11T00:06:15.727Z,101412.84
2022-12-11T00:08:43.127Z,101404.97
2022-12-11T00:11:16.959Z,101403.97
2022-12-11T00:13:43.859Z,101406.56
2022-12-11T00:16:10.991Z,101405.78
2022-12-11T00:18:39.224Z,101403.97
2022-12-11T00:21:08.096Z,101408.19
2022-12-11T00:23:36.046Z,101408.00
2022-12-11T00:26:07.264Z,101410.03
2022-12-11T00:28:34.075Z,101408.00
2022-12-11T00:31:05.716Z,101408.19
2022-12-11T00:33:32.330Z,101413.25
2022-12-11T00:35:59.274Z,101411.63
2022-12-11T00:38:26.016Z,101406.38
2022-12-11T00:40:52.692Z,101398.72
2022-12-11T00:43:19.176Z,101403.16
2022-12-11T00:45:48.075Z,101399.53
2022-12-11T00:48:14.782Z,101393.28
2022-12-11T00:50:41.443Z,101397.72
2022-12-11T00:53:08.164Z,101390.66
2022-12-11T00:55:42.267Z,101384.44
2022-12-11T00:58:10.051Z,101384.44
2022-12-11T01:00:37.109Z,101386.81
2022-12-11T01:03:04.730Z,101380.97
2022-12-11T01:05:31.742Z,101388.63
2022-12-11T01:07:58.302Z,101388.63
2022-12-11T01:10:25.086Z,101390.25
2022-12-11T01:13:16.326Z,101386.41
2022-12-11T01:15:45.292Z,101375.34
2022-12-11T01:18:14.094Z,101385.81
2022-12-11T01:20:42.782Z,101381.19
2022-12-11T01:23:13.006Z,101386.41
2022-12-11T01:25:40.541Z,101383.78
2022-12-11T01:28:07.874Z,101384.59
2022-12-11T01:30:35.859Z,101390.03
2022-12-11T01:33:03.930Z,101391.66
2022-12-11T01:35:30.465Z,101384.00
2022-12-11T01:37:57.207Z,101387.41
2022-12-11T01:40:24.066Z,101396.66
2022-12-11T01:42:50.971Z,101388.81
2022-12-11T01:45:38.931Z,101397.50
2022-12-11T01:48:12.633Z,101389.84
2022-12-11T01:50:50.680Z,101391.22
2022-12-11T01:53:21.556Z,101397.50
2022-12-11T01:55:50.268Z,101389.63
2022-12-11T01:58:18.724Z,101394.88
2022-12-11T02:00:45.446Z,101397.50
2022-12-11T02:03:12.106Z,101379.16
2022-12-11T02:05:39.083Z,101375.72
2022-12-11T02:08:09.898Z,101377.53
2022-12-11T02:10:54.937Z,101381.78
2022-12-11T02:13:38.726Z,101366.84
2022-12-11T02:16:17.064Z,101370.28
2022-12-11T02:18:53.876Z,101364.63
2022-12-11T02:21:33.686Z,101369.03
2022-12-11T02:24:32.727Z,101363.59
2022-12-11T02:27:28.713Z,101360.19
2022-12-11T02:30:06.700Z,101360.19
2022-12-11T02:33:02.907Z,101357.38
2022-12-11T02:35:38.183Z,101357.56
2022-12-11T02:38:10.729Z,101351.28
2022-12-11T02:40:40.190Z,101354.75
2022-12-11T02:43:10.133Z,101341.66
2022-12-11T02:45:38.474Z,101346.44
2022-12-11T02:48:07.820Z,101345.44
2022-12-11T02:50:38.087Z,101349.66
2022-12-11T02:53:06.879Z,101345.22
2022-12-11T02:55:36.638Z,101348.66
2022-12-11T02:58:12.459Z,101355.28
2022-12-11T03:00:40.215Z,101351.66
2022-12-11T03:03:06.911Z,101356.69
2022-12-11T03:05:33.608Z,101354.06
2022-12-11T03:08:00.202Z,101362.72
2022-12-11T03:10:26.925Z,101356.47
2022-12-11T03:12:57.780Z,101347.81
2022-12-11T03:15:39.554Z,101350.44
2022-12-11T03:18:15.753Z,101355.44
2022-12-11T03:20:50.286Z,101358.66
2022-12-11T03:23:43.480Z,101358.66
2022-12-11T03:26:13.309Z,101354.00
2022-12-11T03:29:10.524Z,101356.63
2022-12-11T03:31:43.672Z,101356.44
2022-12-11T03:34:18.701Z,101359.84
2022-12-11T03:36:47.909Z,101357.22
2022-12-11T03:39:22.735Z,101350.19
2022-12-11T03:41:51.822Z,101358.84
2022-12-11T03:44:20.894Z,101349.97
2022-12-11T03:46:49.905Z,101353.41
2022-12-11T03:49:20.056Z,101350.78
2022-12-11T03:51:49.358Z,101355.19
2022-12-11T03:54:17.410Z,101347.13
2022-12-11T03:56:45.960Z,101348.97
2022-12-11T03:59:13.208Z,101343.72
2022-12-11T04:01:40.021Z,101335.84
2022-12-11T04:04:06.591Z,101334.84
2022-12-11T04:06:33.232Z,101344.31
2022-12-11T04:08:59.832Z,101341.69
2022-12-11T04:11:35.416Z,101342.69
2022-12-11T04:14:26.951Z,101344.53
2022-12-11T04:16:54.592Z,101342.50
2022-12-11T04:19:40.027Z,101339.06
2022-12-11T04:22:25.110Z,101335.66
2022-12-11T04:24:52.735Z,101341.47
2022-12-11T04:27:38.680Z,101342.28
2022-12-11T04:30:07.937Z,101339.66
2022-12-11T04:32:34.594Z,101322.31
2022-12-11T04:35:01.338Z,101328.34
2022-12-11T04:37:28.994Z,101325.75
2022-12-11T04:39:55.815Z,101330.97
2022-12-11T04:42:22.617Z,101329.97
2022-12-11T04:44:49.167Z,101322.91
2022-12-11T04:47:15.776Z,101320.50
2022-12-11T04:49:42.431Z,101319.50
2022-12-11T04:52:09.272Z,101316.88
2022-12-11T04:54:35.806Z,101320.28
2022-12-11T04:57:02.409Z,101318.69
2022-12-11T04:59:28.967Z,101311.63
2022-12-11T05:01:55.572Z,101322.91
2022-12-11T05:04:22.151Z,101319.50
2022-12-11T05:06:50.168Z,101323.69
2022-12-11T05:09:16.998Z,101322.91
2022-12-11T05:11:43.528Z,101328.75
2022-12-11T05:14:10.072Z,101331.56
2022-12-11T05:16:36.539Z,101335.00
2022-12-11T05:19:03.483Z,101342.63
2022-12-11T05:21:34.804Z,101330.38
2022-12-11T05:24:01.949Z,101323.69
2022-12-11T05:26:28.947Z,101325.53
2022-12-11T05:28:56.070Z,101323.13
2022-12-11T05:31:26.069Z,101318.91
2022-12-11T05:33:53.319Z,101323.34
2022-12-11T05:36:24.280Z,101315.50
2022-12-11T05:38:51.889Z,101313.66
2022-12-11T05:41:21.593Z,101312.88
2022-12-11T05:43:48.746Z,101318.09
2022-12-11T05:46:18.802Z,101311.03
2022-12-11T05:48:47.842Z,101309.44
2022-12-11T05:51:15.847Z,101317.31
2022-12-11T05:53:43.844Z,101307.03
2022-12-11T05:56:20.508Z,101308.22
2022-12-11T05:58:48.338Z,101320.28
2022-12-11T06:01:19.444Z,101315.84
2022-12-11T06:03:46.191Z,101312.44
2022-12-11T06:06:12.803Z,101303.56
2022-12-11T06:08:39.555Z,101306.97
2022-12-11T06:11:06.805Z,101301.94
2022-12-11T06:13:33.649Z,101307.19
2022-12-11T06:16:02.825Z,101305.34
2022-12-11T06:18:35.198Z,101309.00
2022-12-11T06:21:02.008Z,101307.19
2022-12-11T06:23:28.665Z,101303.78
2022-12-11T06:25:55.236Z,101306.38
2022-12-11T06:28:21.816Z,101309.81
2022-12-11T06:30:48.403Z,101308.22
2022-12-11T06:33:15.033Z,101304.22
2022-12-11T06:35:42.425Z,101305.00
2022-12-11T06:38:10.879Z,101311.03
2022-12-11T06:40:38.240Z,101314.69
2022-12-11T06:43:04.924Z,101304.22
2022-12-11T06:45:31.558Z,101309.44
2022-12-11T06:47:58.861Z,101316.28
2022-12-11T06:50:25.735Z,101316.50
2022-12-11T06:52:52.246Z,101323.56
2022-12-11T06:55:18.919Z,101324.78
2022-12-11T06:57:45.472Z,101325.59
2022-12-11T07:00:12.614Z,101321.97
2022-12-11T07:02:39.294Z,101323.56
2022-12-11T07:05:06.377Z,101326.38
2022-12-11T07:07:32.903Z,101319.53
2022-12-11T07:10:07.305Z,101320.34
2022-12-11T07:12:34.795Z,101330.03
2022-12-11T07:15:01.589Z,101329.22
2022-12-11T07:17:29.750Z,101335.47
2022-12-11T07:19:56.336Z,101333.88
2022-12-11T07:22:23.055Z,101332.06
2022-12-11T07:24:49.633Z,101322.56
2022-12-11T07:27:16.157Z,101338.28
2022-12-11T07:29:42.681Z,101335.47
2022-12-11T07:32:09.337Z,101340.72
2022-12-11T07:34:36.068Z,101329.22
2022-12-11T07:37:02.678Z,101334.84
2022-12-11T07:39:29.319Z,101341.84
2022-12-11T07:41:55.895Z,101348.66
2022-12-11T07:44:22.468Z,101337.53
2022-12-11T07:46:49.188Z,101342.50
2022-12-11T07:49:15.750Z,101336.22
2022-12-11T07:51:43.177Z,101342.97
2022-12-11T07:54:16.682Z,101340.09
2022-12-11T07:56:49.794Z,101342.88
2022-12-11T07:59:19.558Z,101346.25
2022-12-11T08:01:46.154Z,101344.19
2022-12-11T08:04:15.719Z,101349.19
2022-12-11T08:06:42.595Z,101346.28
2022-12-11T08:09:15.964Z,101347.91
2022-12-11T08:11:51.640Z,101342.41
2022-12-11T08:14:19.495Z,101346.38
2022-12-11T08:16:46.089Z,101345.91
2022-12-11T08:19:13.340Z,101347.09
2022-12-11T08:21:40.421Z,101352.50
2022-12-11T08:24:08.033Z,101342.00
2022-12-11T08:26:34.939Z,101348.75
2022-12-11T08:29:02.763Z,101344.34
2022-12-11T08:31:30.217Z,101351.38
2022-12-11T08:33:56.961Z,101350.38
2022-12-11T08:36:24.146Z,101339.38
2022-12-11T08:38:51.286Z,101347.84
2022-12-11T08:41:38.044Z,101342.34
2022-12-11T08:44:06.096Z,101346.00
2022-12-11T08:46:33.713Z,101357.31
2022-12-11T08:49:00.534Z,101349.34
2022-12-11T08:51:28.699Z,101354.59
2022-12-11T08:53:57.271Z,101347.75
2022-12-11T08:56:24.744Z,101336.09
2022-12-11T08:58:51.502Z,101335.28
2022-12-11T09:01:24.803Z,101340.88
2022-12-11T09:03:53.207Z,101338.41
2022-12-11T09:06:22.095Z,101339.88
2022-12-11T09:08:53.000Z,101338.25
2022-12-11T09:11:23.281Z,101333.00
2022-12-11T09:13:50.224Z,101333.94
2022-12-11T09:16:20.066Z,101332.13
2022-12-11T09:18:48.588Z,101326.66
2022-12-11T09:21:18.018Z,101320.59
2022-12-11T09:23:44.755Z,101318.09
2022-12-11T09:26:13.706Z,101316.44
2022-12-11T09:28:45.751Z,101320.13
2022-12-11T09:31:17.825Z,101317.13
2022-12-11T09:33:44.726Z,101317.50
2022-12-11T09:36:12.360Z,101323.44
2022-12-11T09:38:39.448Z,101318.34
2022-12-11T09:41:23.670Z,101321.53
2022-12-11T09:44:01.968Z,101315.59
2022-12-11T09:46:33.678Z,101316.41
2022-12-11T09:49:03.418Z,101313.56
2022-12-11T09:51:37.752Z,101314.94
2022-12-11T09:54:05.238Z,101314.72
2022-12-11T09:56:43.109Z,101315.28
2022-12-11T09:59:32.110Z,101307.75
2022-12-11T10:02:23.245Z,101313.13
2022-12-11T10:05:29.436Z,101312.44
2022-12-11T10:08:16.173Z,101305.97
2022-12-11T10:10:51.638Z,101312.81
2022-12-11T10:13:38.413Z,101312.94
2022-12-11T10:16:22.722Z,101313.16
2022-12-11T10:18:49.599Z,101302.75
2022-12-11T10:21:18.583Z,101306.78
2022-12-11T10:23:58.494Z,101305.06
2022-12-11T10:26:25.050Z,101306.44
2022-12-11T10:28:52.075Z,101305.16
2022-12-11T10:31:45.120Z,101308.72
2022-12-11T10:34:43.464Z,101304.84
2022-12-11T10:37:10.316Z,101313.53
2022-12-11T10:39:37.269Z,101302.00
2022-12-11T10:42:18.352Z,101298.88
2022-12-11T10:44:58.297Z,101304.72
2022-12-11T10:47:25.290Z,101301.41
2022-12-11T10:49:56.816Z,101306.22
2022-12-11T10:52:27.296Z,101303.59
2022-12-11T10:55:02.380Z,101296.28
2022-12-11T10:57:33.623Z,101283.56
2022-12-11T11:00:00.871Z,101290.44
2022-12-11T11:02:38.879Z,101296.28
2022-12-11T11:05:14.865Z,101292.59
2022-12-11T11:07:49.562Z,101289.53
2022-12-11T11:10:18.959Z,101288.72
2022-12-11T11:12:50.139Z,101286.69
2022-12-11T11:15:24.384Z,101277.50
2022-12-11T11:17:55.787Z,101282.31
2022-12-11T11:20:29.255Z,101279.94
2022-12-11T11:23:00.853Z,101276.03
2022-12-11T11:25:30.242Z,101269.06
2022-12-11T11:28:36.091Z,101267.34
2022-12-11T11:31:06.570Z,101273.75
2022-12-11T11:33:35.532Z,101264.59
2022-12-11T11:36:08.048Z,101272.69
2022-12-11T11:38:50.806Z,101260.91
2022-12-11T11:41:24.156Z,101270.63
2022-12-11T11:43:59.132Z,101269.16
2022-12-11T11:46:49.383Z,101265.72
2022-12-11T11:49:30.216Z,101269.25
2022-12-11T11:52:03.839Z,101259.75
2022-12-11T11:54:35.748Z,101261.13
2022-12-11T11:57:13.626Z,101255.50
2022-12-11T11:59:45.342Z,101250.38
2022-12-11T12:02:16.902Z,101254.84
2022-12-11T12:04:44.950Z,101254.84
2022-12-11T12:07:48.198Z,101251.97
2022-12-11T12:10:26.455Z,101247.84
2022-12-11T12:13:48.695Z,101252.88
2022-12-11T12:16:52.290Z,101250.16
2022-12-11T12:19:44.041Z,101243.63
2022-12-11T12:22:48.699Z,101244.63
2022-12-11T12:25:45.488Z,101243.03
2022-12-11T12:28:22.313Z,101237.78
2022-12-11T12:31:32.017Z,101238.91
2022-12-11T12:34:17.027Z,101232.75
2022-12-11T12:40:19.577Z,101242.47
2022-12-11T12:46:51.516Z,101242.47
2022-12-11T12:49:41.642Z,101233.88
2022-12-11T12:52:21.229Z,101231.16
2022-12-11T12:55:09.561Z,101229.44
2022-12-11T12:57:38.754Z,101235.84
2022-12-11T13:00:12.812Z,101232.31
2022-12-11T13:02:51.045Z,101234.94
2022-12-11T13:05:29.464Z,101238.94
2022-12-11T13:07:59.717Z,101231.03
2022-12-11T13:10:38.057Z,101234.16
2022-12-11T13:13:06.706Z,101239.84
2022-12-11T13:15:43.754Z,101237.00
2022-12-11T13:18:38.013Z,101241.69
2022-12-11T13:21:40.509Z,101250.06
2022-12-11T13:24:13.228Z,101243.19
2022-12-11T13:26:40.714Z,101244.81
2022-12-11T13:29:32.746Z,101242.50
2022-12-11T13:32:21.999Z,101246.25
2022-12-11T13:34:56.582Z,101253.13
2022-12-11T13:37:47.437Z,101243.75
2022-12-11T13:40:25.851Z,101242.69
2022-12-11T13:42:59.692Z,101246.94
2022-12-11T13:45:47.645Z,101243.28
2022-12-11T13:48:27.877Z,101252.78
2022-12-11T13:50:56.778Z,101247.75
2022-12-11T13:53:23.575Z,101239.06
2022-12-11T13:56:06.629Z,101247.41
2022-12-11T13:58:39.190Z,101251.53
2022-12-11T14:01:12.931Z,101255.19
2022-12-11T14:03:52.992Z,101250.25
2022-12-11T14:06:19.779Z,101256.91
2022-12-11T14:08:50.237Z,101253.94
2022-12-11T14:11:24.344Z,101253.84
2022-12-11T14:13:50.952Z,101252.88
2022-12-11T14:16:23.487Z,101252.44
2022-12-11T14:18:52.169Z,101255.28
2022-12-11T14:21:24.417Z,101248.44
2022-12-11T14:23:58.180Z,101252.66
2022-12-11T14:26:28.688Z,101251.88
2022-12-11T14:28:55.590Z,101257.34
2022-12-11T14:31:37.739Z,101252.88
2022-12-11T14:34:13.954Z,101258.97
2022-12-11T14:36:42.058Z,101251.88
2022-12-11T14:39:16.865Z,101249.00
2022-12-11T14:41:52.820Z,101252.66
2022-12-11T14:44:22.511Z,101254.50
2022-12-11T14:46:54.649Z,101250.59
2022-12-11T14:49:32.227Z,101254.72
2022-12-11T14:52:00.179Z,101247.88
2022-12-11T14:54:37.644Z,101251.88
2022-12-11T14:57:06.735Z,101247.19
2022-12-11T14:59:44.001Z,101255.06
2022-12-11T15:02:45.712Z,101252.22
2022-12-11T15:05:18.068Z,101250.38
2022-12-11T15:07:57.631Z,101263.75
2022-12-11T15:10:30.527Z,101265.59
2022-12-11T15:12:58.175Z,101269.03
2022-12-11T15:15:25.495Z,101266.97
2022-12-11T15:17:52.993Z,101266.97
2022-12-11T15:20:28.268Z,101258.97
2022-12-11T15:22:59.089Z,101266.53
2022-12-11T15:25:29.427Z,101266.53
2022-12-11T15:27:59.038Z,101267.09
2022-12-11T15:30:32.684Z,101266.38
2022-12-11T15:33:09.308Z,101271.66
2022-12-11T15:35:36.943Z,101273.50
2022-12-11T15:38:03.666Z,101269.03
2022-12-11T15:40:30.589Z,101275.34
2022-12-11T15:42:57.920Z,101274.50
2022-12-11T15:45:29.934Z,101278.97
2022-12-11T15:47:57.179Z,101281.03
2022-12-11T15:50:28.610Z,101275.69
2022-12-11T15:52:56.796Z,101280.94
2022-12-11T15:55:26.509Z,101285.50
2022-12-11T15:58:18.817Z,101283.09
2022-12-11T16:00:46.497Z,101283.91
2022-12-11T16:03:15.089Z,101286.56
2022-12-11T16:05:42.799Z,101288.38
2022-12-11T16:08:18.893Z,101278.88
2022-12-11T16:10:46.274Z,101281.75
2022-12-11T16:13:13.499Z,101286.78
2022-12-11T16:15:43.497Z,101277.84
2022-12-11T16:18:13.384Z,101283.91
2022-12-11T16:20:41.085Z,101279.69
2022-12-11T16:23:08.354Z,101278.09
2022-12-11T16:25:40.856Z,101276.25
2022-12-11T16:28:08.666Z,101278.31
2022-12-11T16:30:37.093Z,101279.09
2022-12-11T16:33:11.715Z,101279.09
2022-12-11T16:35:39.357Z,101274.88
2022-12-11T16:38:05.906Z,101279.31
2022-12-11T16:40:32.505Z,101281.75
2022-12-11T16:42:59.221Z,101277.25
2022-12-11T16:45:26.526Z,101275.69
2022-12-11T16:47:53.652Z,101280.38
2022-12-11T16:50:20.873Z,101276.69
2022-12-11T16:52:47.475Z,101268.00
2022-12-11T16:55:15.641Z,101274.63
2022-12-11T16:57:42.325Z,101276.81
2022-12-11T17:00:12.441Z,101271.56
2022-12-11T17:02:39.552Z,101271.00
2022-12-11T17:05:06.513Z,101276.56
2022-12-11T17:07:33.326Z,101271.00
2022-12-11T17:10:01.885Z,101275.22
2022-12-11T17:12:28.960Z,101275.47
2022-12-11T17:14:56.445Z,101272.81
2022-12-11T17:17:23.181Z,101273.63
2022-12-11T17:19:49.782Z,101273.63
2022-12-11T17:22:16.588Z,101278.09
2022-12-11T17:24:43.313Z,101274.63
2022-12-11T17:27:09.933Z,101274.06
2022-12-11T17:29:36.566Z,101268.47
2022-12-11T17:32:03.408Z,101276.13
2022-12-11T17:34:36.045Z,101275.56
2022-12-11T17:37:06.221Z,101282.09
2022-12-11T17:39:33.220Z,101274.97
2022-12-11T17:42:00.077Z,101270.53
2022-12-11T17:44:30.319Z,101274.75
2022-12-11T17:46:58.106Z,101274.75
2022-12-11T17:49:24.946Z,101283.69
2022-12-11T17:51:53.225Z,101272.13
2022-12-11T17:54:20.234Z,101269.28
2022-12-11T17:56:46.904Z,101274.75
2022-12-11T17:59:13.513Z,101275.56
2022-12-11T18:01:40.199Z,101282.44
2022-12-11T18:04:06.848Z,101275.56
2022-12-11T18:06:33.674Z,101281.63
2022-12-11T18:09:00.224Z,101285.63
2022-12-11T18:11:26.686Z,101285.84
2022-12-11T18:13:53.938Z,101284.28
2022-12-11T18:16:28.899Z,101287.91
2022-12-11T18:18:56.642Z,101295.00
2022-12-11T18:21:29.535Z,101284.94
2022-12-11T18:23:56.630Z,101285.75
2022-12-11T18:26:23.704Z,101281.06
2022-12-11T18:28:51.538Z,101292.03
2022-12-11T18:31:19.912Z,101285.19
2022-12-11T18:33:47.421Z,101287.56
2022-12-11T18:36:15.813Z,101287.34
2022-12-11T18:38:42.770Z,101292.59
2022-12-11T18:41:11.809Z,101291.03
2022-12-11T18:43:38.600Z,101295.25
2022-12-11T18:46:10.342Z,101298.09
2022-12-11T18:48:37.416Z,101297.78
2022-12-11T18:51:09.451Z,101297.19
2022-12-11T18:53:39.202Z,101297.19
2022-12-11T18:56:12.708Z,101296.63
2022-12-11T18:58:39.838Z,101299.47
2022-12-11T19:01:08.361Z,101303.38
2022-12-11T19:03:35.124Z,101294.91
2022-12-11T19:06:11.623Z,101298.56
2022-12-11T19:08:38.785Z,101294.09
2022-12-11T19:11:05.916Z,101289.28
2022-12-11T19:13:33.290Z,101287.56
2022-12-11T19:16:00.127Z,101292.84
2022-12-11T19:18:26.874Z,101292.41
2022-12-11T19:21:03.272Z,101302.66
2022-12-11T19:23:33.257Z,101296.38
2022-12-11T19:25:59.948Z,101301.66
2022-12-11T19:28:26.435Z,101292.84
2022-12-11T19:30:52.965Z,101294.66
2022-12-11T19:33:19.543Z,101292.84
2022-12-11T19:35:46.071Z,101281.31
2022-12-11T19:38:13.063Z,101292.63
2022-12-11T19:40:44.547Z,101295.03
2022-12-11T19:43:11.771Z,101298.19
2022-12-11T19:45:38.607Z,101297.19
2022-12-11T19:48:05.804Z,101293.75
2022-12-11T19:50:34.553Z,101298.78
2022-12-11T19:53:01.139Z,101301.41
2022-12-11T19:55:27.736Z,101301.28
2022-12-11T19:57:55.552Z,101300.28
2022-12-11T20:00:22.154Z,101294.44
2022-12-11T20:02:49.151Z,101298.88
2022-12-11T20:05:16.319Z,101297.88
2022-12-11T20:07:45.672Z,101303.94
2022-12-11T20:10:12.650Z,101297.88
2022-12-11T20:12:39.371Z,101309.19
2022-12-11T20:15:06.406Z,101307.34
2022-12-11T20:17:33.422Z,101304.72
2022-12-11T20:20:00.205Z,101305.53
2022-12-11T20:22:26.911Z,101303.94
2022-12-11T20:24:53.610Z,101306.78
2022-12-11T20:27:20.152Z,101298.09
2022-12-11T20:29:46.760Z,101301.78
2022-12-11T20:32:13.431Z,101302.34
2022-12-11T20:34:40.110Z,101305.75
2022-12-11T20:37:07.824Z,101310.66
2022-12-11T20:39:35.310Z,101312.28
2022-12-11T20:42:05.047Z,101310.22
2022-12-11T20:44:32.522Z,101308.41
2022-12-11T20:46:59.295Z,101305.97
2022-12-11T20:49:26.121Z,101310.66
2022-12-11T20:51:52.702Z,101311.72
2022-12-11T20:54:19.351Z,101311.72
2022-12-11T20:56:45.878Z,101316.50
2022-12-11T20:59:13.365Z,101313.66
2022-12-11T21:01:40.829Z,101311.25
2022-12-11T21:04:07.455Z,101313.53
2022-12-11T21:06:36.399Z,101310.78
2022-12-11T21:09:09.636Z,101319.56
2022-12-11T21:11:36.227Z,101312.00
2022-12-11T21:14:03.595Z,101314.19
2022-12-11T21:16:30.727Z,101314.28
2022-12-11T21:18:57.546Z,101313.34
2022-12-11T21:21:24.887Z,101317.66
2022-12-11T21:23:51.565Z,101315.72
2022-12-11T21:26:19.897Z,101321.06
2022-12-11T21:28:46.552Z,101316.69
2022-12-11T21:31:15.592Z,101317.59
2022-12-11T21:33:42.267Z,101304.31
2022-12-11T21:36:11.514Z,101311.69
2022-12-11T21:38:38.759Z,101303.91
2022-12-11T21:41:15.719Z,101304.00
2022-12-11T21:44:19.249Z,101311.50
2022-12-11T21:46:30.789Z,101308.75
2022-12-11T21:48:57.367Z,101309.63
2022-12-11T21:51:37.117Z,101308.22
2022-12-11T21:54:06.990Z,101310.06
2022-12-11T21:56:33.892Z,101316.97
2022-12-11T21:59:01.639Z,101317.03
2022-12-11T22:01:32.326Z,101317.72
2022-12-11T22:03:59.222Z,101326.81
2022-12-11T22:06:25.865Z,101324.63
2022-12-11T22:08:52.563Z,101327.69
2022-12-11T22:11:22.687Z,101329.72
2022-12-11T22:13:49.377Z,101337.03
2022-12-11T22:16:16.303Z,101330.81
2022-12-11T22:18:43.117Z,101331.25
2022-12-11T22:21:09.827Z,101333.06
2022-12-11T22:23:37.948Z,101331.69
2022-12-11T22:26:04.548Z,101338.97
2022-12-11T22:28:31.042Z,101334.94
2022-12-11T22:30:57.803Z,101330.16
2022-12-11T22:33:24.680Z,101326.94
2022-12-11T22:35:59.102Z,101333.41
2022-12-11T22:38:26.350Z,101337.06
2022-12-11T22:40:54.186Z,101339.69
2022-12-11T22:43:20.993Z,101336.47
2022-12-11T22:45:47.603Z,101343.94
2022-12-11T22:48:14.181Z,101343.94
2022-12-11T22:50:41.627Z,101348.59
2022-12-11T22:53:08.374Z,101337.53
2022-12-11T22:55:38.842Z,101356.09
2022-12-11T22:58:05.764Z,101349.47
2022-12-11T23:00:32.400Z,101342.63
2022-12-11T23:02:59.090Z,101344.44
2022-12-11T23:05:25.775Z,101342.03
2022-12-11T23:07:52.410Z,101347.28
2022-12-11T23:10:19.578Z,101347.28
2022-12-11T23:12:46.231Z,101344.88
2022-12-11T23:15:13.535Z,101344.28
2022-12-11T23:17:40.189Z,101343.69
2022-12-11T23:20:07.344Z,101345.50
2022-12-11T23:22:34.156Z,101347.34
2022-12-11T23:25:01.088Z,101345.72
2022-12-11T23:27:27.759Z,101343.31
2022-12-11T23:29:55.151Z,101344.34
2022-12-11T23:32:21.574Z,101346.16
2022-12-11T23:34:48.176Z,101341.13
2022-12-11T23:37:15.467Z,101336.09
2022-12-11T23:39:42.002Z,101347.38
2022-12-11T23:42:09.432Z,101343.16
2022-12-11T23:44:36.055Z,101348.00
2022-12-11T23:47:02.837Z,101353.47
2022-12-11T23:49:29.534Z,101349.03
2022-12-11T23:51:56.202Z,101353.25
2022-12-11T23:54:22.951Z,101352.47
2022-12-11T23:56:49.699Z,101342.97
2022-12-11T23:59:16.263Z,101343.22
